Terminal Aerodrome Forecast
Issued by NWS

Home | Current Version | Previous Version | Text Only | Print | Product List | Glossary On
Versions: 1 2 3 4 5 6 7 8 9 10 11 12 13 14 15 16 17 18 19 20 21 22 23 24
000
FTUS45 KGJT 250531
TAFGUC
TAF
KGUC 250531Z 2506/2606 01005KT P6SM BKN080
     FM250800 26005KT P6SM FEW200
     FM250900 23005KT P6SM FEW200
     FM251800 26005KT P6SM FEW250
     FM252300 20009KT P6SM SCT200
     FM260000 15009KT P6SM SCT250=

USA.gov is the U.S. government's official web portal to all federal, state and local government web resources and services.